sensor_id;sensor_type;location;lat;lon;timestamp;temperature;humidity
10123;DHT22;5101;49.038;8.710;2022-10-17T00:00:42;14.80;99.90
10123;DHT22;5101;49.038;8.710;2022-10-17T00:03:08;14.80;99.90
10123;DHT22;5101;49.038;8.710;2022-10-17T00:05:39;14.80;99.90
10123;DHT22;5101;49.038;8.710;2022-10-17T00:08:05;14.80;99.90
10123;DHT22;5101;49.038;8.710;2022-10-17T00:10:30;14.80;99.90
10123;DHT22;5101;49.038;8.710;2022-10-17T00:12:56;14.90;99.90
10123;DHT22;5101;49.038;8.710;2022-10-17T00:15:21;14.90;99.90
10123;DHT22;5101;49.038;8.710;2022-10-17T00:17:47;14.90;99.90
10123;DHT22;5101;49.038;8.710;2022-10-17T00:20:13;14.90;99.90
10123;DHT22;5101;49.038;8.710;2022-10-17T00:22:40;14.90;99.90
10123;DHT22;5101;49.038;8.710;2022-10-17T00:25:05;14.80;99.90
10123;DHT22;5101;49.038;8.710;2022-10-17T00:27:34;14.80;99.90
10123;DHT22;5101;49.038;8.710;2022-10-17T00:30:00;14.80;99.90
10123;DHT22;5101;49.038;8.710;2022-10-17T00:32:26;14.90;99.90
10123;DHT22;5101;49.038;8.710;2022-10-17T00:34:51;14.80;99.90
10123;DHT22;5101;49.038;8.710;2022-10-17T00:37:17;14.80;99.90
10123;DHT22;5101;49.038;8.710;2022-10-17T00:39:42;14.90;99.90
10123;DHT22;5101;49.038;8.710;2022-10-17T00:42:11;14.80;99.90
10123;DHT22;5101;49.038;8.710;2022-10-17T00:47:10;14.80;99.90
10123;DHT22;5101;49.038;8.710;2022-10-17T00:49:38;14.80;99.90
10123;DHT22;5101;49.038;8.710;2022-10-17T00:52:07;14.70;99.90
10123;DHT22;5101;49.038;8.710;2022-10-17T00:54:37;14.70;99.90
10123;DHT22;5101;49.038;8.710;2022-10-17T00:57:04;14.70;99.90
10123;DHT22;5101;49.038;8.710;2022-10-17T00:59:32;14.70;99.90
10123;DHT22;5101;49.038;8.710;2022-10-17T01:02:07;14.70;99.90
10123;DHT22;5101;49.038;8.710;2022-10-17T01:04:35;14.70;99.90
10123;DHT22;5101;49.038;8.710;2022-10-17T01:07:01;14.70;99.90
10123;DHT22;5101;49.038;8.710;2022-10-17T01:09:26;14.70;99.90
10123;DHT22;5101;49.038;8.710;2022-10-17T01:12:16;14.70;99.90
10123;DHT22;5101;49.038;8.710;2022-10-17T01:29:14;14.30;99.90
10123;DHT22;5101;49.038;8.710;2022-10-17T01:31:56;14.40;99.90
10123;DHT22;5101;49.038;8.710;2022-10-17T01:34:41;14.40;99.90
10123;DHT22;5101;49.038;8.710;2022-10-17T01:37:31;14.40;99.90
10123;DHT22;5101;49.038;8.710;2022-10-17T01:40:08;14.40;99.90
10123;DHT22;5101;49.038;8.710;2022-10-17T01:45:30;14.40;99.90
10123;DHT22;5101;49.038;8.710;2022-10-17T01:48:02;14.30;99.90
10123;DHT22;5101;49.038;8.710;2022-10-17T01:50:43;14.20;99.90
10123;DHT22;5101;49.038;8.710;2022-10-17T01:53:20;14.20;99.90
10123;DHT22;5101;49.038;8.710;2022-10-17T01:55:49;14.20;99.90
10123;DHT22;5101;49.038;8.710;2022-10-17T01:58:22;14.20;99.90
10123;DHT22;5101;49.038;8.710;2022-10-17T02:00:51;14.10;99.90
10123;DHT22;5101;49.038;8.710;2022-10-17T02:03:18;14.10;99.90
10123;DHT22;5101;49.038;8.710;2022-10-17T02:05:45;14.00;99.90
10123;DHT22;5101;49.038;8.710;2022-10-17T02:08:11;14.00;99.90
10123;DHT22;5101;49.038;8.710;2022-10-17T02:10:45;14.00;99.90
10123;DHT22;5101;49.038;8.710;2022-10-17T02:19:00;13.90;99.90
10123;DHT22;5101;49.038;8.710;2022-10-17T02:24:06;13.90;99.90
10123;DHT22;5101;49.038;8.710;2022-10-17T02:26:52;13.80;99.90
10123;DHT22;5101;49.038;8.710;2022-10-17T02:29:23;13.80;99.90
10123;DHT22;5101;49.038;8.710;2022-10-17T02:31:55;13.90;99.90
10123;DHT22;5101;49.038;8.710;2022-10-17T02:34:41;13.90;99.90
10123;DHT22;5101;49.038;8.710;2022-10-17T02:37:09;13.90;99.90
10123;DHT22;5101;49.038;8.710;2022-10-17T02:39:38;13.90;99.90
10123;DHT22;5101;49.038;8.710;2022-10-17T02:42:07;13.90;99.90
10123;DHT22;5101;49.038;8.710;2022-10-17T02:44:37;13.80;99.90
10123;DHT22;5101;49.038;8.710;2022-10-17T02:47:24;13.80;99.90
10123;DHT22;5101;49.038;8.710;2022-10-17T02:49:54;13.80;99.90
10123;DHT22;5101;49.038;8.710;2022-10-17T02:55:18;13.80;99.90
10123;DHT22;5101;49.038;8.710;2022-10-17T02:57:53;13.70;99.90
10123;DHT22;5101;49.038;8.710;2022-10-17T03:00:21;13.60;99.90
10123;DHT22;5101;49.038;8.710;2022-10-17T03:02:51;13.70;99.90
10123;DHT22;5101;49.038;8.710;2022-10-17T03:05:28;13.60;99.90
10123;DHT22;5101;49.038;8.710;2022-10-17T03:07:54;13.70;99.90
10123;DHT22;5101;49.038;8.710;2022-10-17T03:10:21;13.70;99.90
10123;DHT22;5101;49.038;8.710;2022-10-17T03:12:47;13.70;99.90
10123;DHT22;5101;49.038;8.710;2022-10-17T03:15:13;13.70;99.90
10123;DHT22;5101;49.038;8.710;2022-10-17T03:17:39;13.70;99.90
10123;DHT22;5101;49.038;8.710;2022-10-17T03:20:05;13.70;99.90
10123;DHT22;5101;49.038;8.710;2022-10-17T03:22:31;13.70;99.90
10123;DHT22;5101;49.038;8.710;2022-10-17T03:24:57;13.70;99.90
10123;DHT22;5101;49.038;8.710;2022-10-17T03:27:23;13.70;99.90
10123;DHT22;5101;49.038;8.710;2022-10-17T03:29:49;13.60;99.90
10123;DHT22;5101;49.038;8.710;2022-10-17T03:32:14;13.70;99.90
10123;DHT22;5101;49.038;8.710;2022-10-17T03:34:40;13.60;99.90
10123;DHT22;5101;49.038;8.710;2022-10-17T03:37:05;13.60;99.90
10123;DHT22;5101;49.038;8.710;2022-10-17T03:39:31;13.60;99.90
10123;DHT22;5101;49.038;8.710;2022-10-17T03:41:56;13.60;99.90
10123;DHT22;5101;49.038;8.710;2022-10-17T03:44:22;13.60;99.90
10123;DHT22;5101;49.038;8.710;2022-10-17T03:46:47;13.60;99.90
10123;DHT22;5101;49.038;8.710;2022-10-17T03:49:13;13.70;99.90
10123;DHT22;5101;49.038;8.710;2022-10-17T03:51:38;13.70;99.90
10123;DHT22;5101;49.038;8.710;2022-10-17T03:54:04;13.70;99.90
10123;DHT22;5101;49.038;8.710;2022-10-17T03:56:29;13.70;99.90
10123;DHT22;5101;49.038;8.710;2022-10-17T03:58:55;13.70;99.90
10123;DHT22;5101;49.038;8.710;2022-10-17T04:01:21;13.70;99.90
10123;DHT22;5101;49.038;8.710;2022-10-17T04:03:51;13.70;99.90
10123;DHT22;5101;49.038;8.710;2022-10-17T04:06:18;13.70;99.90
10123;DHT22;5101;49.038;8.710;2022-10-17T04:08:43;13.70;99.90
10123;DHT22;5101;49.038;8.710;2022-10-17T04:11:13;13.60;99.90
10123;DHT22;5101;49.038;8.710;2022-10-17T04:13:39;13.60;99.90
10123;DHT22;5101;49.038;8.710;2022-10-17T04:16:09;13.60;99.90
10123;DHT22;5101;49.038;8.710;2022-10-17T04:18:35;13.60;99.90
10123;DHT22;5101;49.038;8.710;2022-10-17T04:21:01;13.70;99.90
10123;DHT22;5101;49.038;8.710;2022-10-17T04:23:27;13.70;99.90
10123;DHT22;5101;49.038;8.710;2022-10-17T04:25:57;13.60;99.90
10123;DHT22;5101;49.038;8.710;2022-10-17T04:28:23;13.60;99.90
10123;DHT22;5101;49.038;8.710;2022-10-17T04:33:22;13.60;99.90
10123;DHT22;5101;49.038;8.710;2022-10-17T04:36:00;13.60;99.90
10123;DHT22;5101;49.038;8.710;2022-10-17T04:38:27;13.70;99.90
10123;DHT22;5101;49.038;8.710;2022-10-17T04:40:52;13.60;99.90
10123;DHT22;5101;49.038;8.710;2022-10-17T04:43:18;13.60;99.90
10123;DHT22;5101;49.038;8.710;2022-10-17T04:45:44;13.60;99.90
10123;DHT22;5101;49.038;8.710;2022-10-17T04:48:09;13.60;99.90
10123;DHT22;5101;49.038;8.710;2022-10-17T04:50:35;13.60;99.90
10123;DHT22;5101;49.038;8.710;2022-10-17T04:53:00;13.60;99.90
10123;DHT22;5101;49.038;8.710;2022-10-17T04:55:26;13.60;99.90
10123;DHT22;5101;49.038;8.710;2022-10-17T04:57:51;13.60;99.90
10123;DHT22;5101;49.038;8.710;2022-10-17T05:00:17;13.60;99.90
10123;DHT22;5101;49.038;8.710;2022-10-17T05:02:42;13.60;99.90
10123;DHT22;5101;49.038;8.710;2022-10-17T05:05:08;13.60;99.90
10123;DHT22;5101;49.038;8.710;2022-10-17T05:07:34;13.50;99.90
10123;DHT22;5101;49.038;8.710;2022-10-17T05:09:59;13.50;99.90
10123;DHT22;5101;49.038;8.710;2022-10-17T05:12:25;13.50;99.90
10123;DHT22;5101;49.038;8.710;2022-10-17T05:14:50;13.50;99.90
10123;DHT22;5101;49.038;8.710;2022-10-17T05:17:16;13.50;99.90
10123;DHT22;5101;49.038;8.710;2022-10-17T05:19:41;13.50;99.90
10123;DHT22;5101;49.038;8.710;2022-10-17T05:22:07;13.40;99.90
10123;DHT22;5101;49.038;8.710;2022-10-17T05:24:33;13.40;99.90
10123;DHT22;5101;49.038;8.710;2022-10-17T05:26:58;13.40;99.90
10123;DHT22;5101;49.038;8.710;2022-10-17T05:29:24;13.40;99.90
10123;DHT22;5101;49.038;8.710;2022-10-17T05:31:49;13.40;99.90
10123;DHT22;5101;49.038;8.710;2022-10-17T05:34:15;13.40;99.90
10123;DHT22;5101;49.038;8.710;2022-10-17T05:36:40;13.40;99.90
10123;DHT22;5101;49.038;8.710;2022-10-17T05:39:06;13.40;99.90
10123;DHT22;5101;49.038;8.710;2022-10-17T05:41:33;13.40;99.90
10123;DHT22;5101;49.038;8.710;2022-10-17T05:43:58;13.50;99.90
10123;DHT22;5101;49.038;8.710;2022-10-17T05:46:24;13.40;99.90
10123;DHT22;5101;49.038;8.710;2022-10-17T05:48:49;13.40;99.90
10123;DHT22;5101;49.038;8.710;2022-10-17T05:51:15;13.40;99.90
10123;DHT22;5101;49.038;8.710;2022-10-17T05:53:41;13.40;99.90
10123;DHT22;5101;49.038;8.710;2022-10-17T05:56:09;13.40;99.90
10123;DHT22;5101;49.038;8.710;2022-10-17T05:58:35;13.40;99.90
10123;DHT22;5101;49.038;8.710;2022-10-17T06:01:05;13.40;99.90
10123;DHT22;5101;49.038;8.710;2022-10-17T06:03:31;13.40;99.90
10123;DHT22;5101;49.038;8.710;2022-10-17T06:06:06;13.40;99.90
10123;DHT22;5101;49.038;8.710;2022-10-17T06:08:32;13.40;99.90
10123;DHT22;5101;49.038;8.710;2022-10-17T06:10:58;13.30;99.90
10123;DHT22;5101;49.038;8.710;2022-10-17T06:13:23;13.40;99.90
10123;DHT22;5101;49.038;8.710;2022-10-17T06:15:49;13.30;99.90
10123;DHT22;5101;49.038;8.710;2022-10-17T06:18:14;13.30;99.90
10123;DHT22;5101;49.038;8.710;2022-10-17T06:20:40;13.30;99.90
10123;DHT22;5101;49.038;8.710;2022-10-17T06:23:05;13.30;99.90
10123;DHT22;5101;49.038;8.710;2022-10-17T06:25:31;13.60;99.90
10123;DHT22;5101;49.038;8.710;2022-10-17T06:27:57;13.40;99.90
10123;DHT22;5101;49.038;8.710;2022-10-17T06:30:23;13.40;99.90
10123;DHT22;5101;49.038;8.710;2022-10-17T06:32:48;13.40;99.90
10123;DHT22;5101;49.038;8.710;2022-10-17T06:35:15;13.50;99.90
10123;DHT22;5101;49.038;8.710;2022-10-17T06:37:41;13.40;99.90
10123;DHT22;5101;49.038;8.710;2022-10-17T06:40:07;13.50;99.90
10123;DHT22;5101;49.038;8.710;2022-10-17T06:42:34;13.50;99.90
10123;DHT22;5101;49.038;8.710;2022-10-17T06:45:00;13.40;99.90
10123;DHT22;5101;49.038;8.710;2022-10-17T06:47:25;13.50;99.90
10123;DHT22;5101;49.038;8.710;2022-10-17T06:49:51;13.50;99.90
10123;DHT22;5101;49.038;8.710;2022-10-17T06:52:16;13.60;99.90
10123;DHT22;5101;49.038;8.710;2022-10-17T06:54:43;13.60;99.90
10123;DHT22;5101;49.038;8.710;2022-10-17T06:57:08;13.70;99.90
10123;DHT22;5101;49.038;8.710;2022-10-17T06:59:34;13.70;99.90
10123;DHT22;5101;49.038;8.710;2022-10-17T07:02:00;13.70;99.90
10123;DHT22;5101;49.038;8.710;2022-10-17T07:04:26;13.80;99.90
10123;DHT22;5101;49.038;8.710;2022-10-17T07:06:52;13.80;99.90
10123;DHT22;5101;49.038;8.710;2022-10-17T07:09:18;13.90;99.90
10123;DHT22;5101;49.038;8.710;2022-10-17T07:11:44;14.00;99.90
10123;DHT22;5101;49.038;8.710;2022-10-17T07:14:09;14.00;99.90
10123;DHT22;5101;49.038;8.710;2022-10-17T07:16:35;14.00;99.90
10123;DHT22;5101;49.038;8.710;2022-10-17T07:19:01;14.10;99.90
10123;DHT22;5101;49.038;8.710;2022-10-17T07:21:27;14.20;99.90
10123;DHT22;5101;49.038;8.710;2022-10-17T07:23:52;14.30;99.90
10123;DHT22;5101;49.038;8.710;2022-10-17T07:26:18;14.30;99.90
10123;DHT22;5101;49.038;8.710;2022-10-17T07:28:46;14.50;99.90
10123;DHT22;5101;49.038;8.710;2022-10-17T07:31:14;14.70;99.90
10123;DHT22;5101;49.038;8.710;2022-10-17T07:33:40;14.90;99.90
10123;DHT22;5101;49.038;8.710;2022-10-17T07:36:06;15.10;99.90
10123;DHT22;5101;49.038;8.710;2022-10-17T07:38:33;15.30;99.90
10123;DHT22;5101;49.038;8.710;2022-10-17T07:41:01;15.50;99.90
10123;DHT22;5101;49.038;8.710;2022-10-17T07:43:27;15.70;99.90
10123;DHT22;5101;49.038;8.710;2022-10-17T07:45:54;15.90;99.90
10123;DHT22;5101;49.038;8.710;2022-10-17T07:48:21;16.30;99.90
10123;DHT22;5101;49.038;8.710;2022-10-17T07:50:47;16.60;99.90
10123;DHT22;5101;49.038;8.710;2022-10-17T07:53:13;16.80;99.90
10123;DHT22;5101;49.038;8.710;2022-10-17T07:55:40;17.10;99.90
10123;DHT22;5101;49.038;8.710;2022-10-17T07:58:06;17.40;99.90
10123;DHT22;5101;49.038;8.710;2022-10-17T08:00:32;17.70;99.90
10123;DHT22;5101;49.038;8.710;2022-10-17T08:02:57;18.10;99.90
10123;DHT22;5101;49.038;8.710;2022-10-17T08:05:23;18.30;99.90
10123;DHT22;5101;49.038;8.710;2022-10-17T08:07:48;18.60;99.90
10123;DHT22;5101;49.038;8.710;2022-10-17T08:10:15;18.90;99.90
10123;DHT22;5101;49.038;8.710;2022-10-17T08:12:41;19.20;99.90
10123;DHT22;5101;49.038;8.710;2022-10-17T08:15:08;19.60;99.90
10123;DHT22;5101;49.038;8.710;2022-10-17T08:17:35;20.00;99.90
10123;DHT22;5101;49.038;8.710;2022-10-17T08:20:00;20.50;99.90
10123;DHT22;5101;49.038;8.710;2022-10-17T08:22:26;21.00;99.90
10123;DHT22;5101;49.038;8.710;2022-10-17T08:24:52;21.40;99.20
10123;DHT22;5101;49.038;8.710;2022-10-17T08:27:17;21.90;97.60
10123;DHT22;5101;49.038;8.710;2022-10-17T08:29:48;22.40;96.50
10123;DHT22;5101;49.038;8.710;2022-10-17T08:32:21;22.80;95.30
10123;DHT22;5101;49.038;8.710;2022-10-17T08:34:47;23.20;94.20
10123;DHT22;5101;49.038;8.710;2022-10-17T08:37:13;23.60;93.40
10123;DHT22;5101;49.038;8.710;2022-10-17T08:39:42;23.90;92.40
10123;DHT22;5101;49.038;8.710;2022-10-17T08:42:41;24.40;91.40
10123;DHT22;5101;49.038;8.710;2022-10-17T08:45:28;24.80;90.00
10123;DHT22;5101;49.038;8.710;2022-10-17T08:47:59;25.40;87.50
10123;DHT22;5101;49.038;8.710;2022-10-17T08:55:53;26.20;79.70
10123;DHT22;5101;49.038;8.710;2022-10-17T08:58:28;26.50;79.20
10123;DHT22;5101;49.038;8.710;2022-10-17T09:14:49;28.30;69.80
10123;DHT22;5101;49.038;8.710;2022-10-17T09:17:20;28.70;66.60
10123;DHT22;5101;49.038;8.710;2022-10-17T09:20:10;28.80;65.30
10123;DHT22;5101;49.038;8.710;2022-10-17T09:22:58;29.20;62.90
10123;DHT22;5101;49.038;8.710;2022-10-17T09:25:24;29.10;61.90
10123;DHT22;5101;49.038;8.710;2022-10-17T09:33:45;29.40;57.40
10123;DHT22;5101;49.038;8.710;2022-10-17T09:36:26;29.70;58.00
10123;DHT22;5101;49.038;8.710;2022-10-17T09:38:55;29.90;55.40
10123;DHT22;5101;49.038;8.710;2022-10-17T09:41:40;30.10;55.20
10123;DHT22;5101;49.038;8.710;2022-10-17T09:49:40;30.50;52.00
10123;DHT22;5101;49.038;8.710;2022-10-17T09:52:21;30.50;52.40
10123;DHT22;5101;49.038;8.710;2022-10-17T09:54:52;30.50;51.60
10123;DHT22;5101;49.038;8.710;2022-10-17T09:57:20;30.70;52.60
10123;DHT22;5101;49.038;8.710;2022-10-17T09:59:55;30.70;52.00
10123;DHT22;5101;49.038;8.710;2022-10-17T10:02:22;30.80;51.60
10123;DHT22;5101;49.038;8.710;2022-10-17T10:04:55;30.70;50.30
10123;DHT22;5101;49.038;8.710;2022-10-17T10:07:22;30.80;48.10
10123;DHT22;5101;49.038;8.710;2022-10-17T10:09:48;30.90;48.50
10123;DHT22;5101;49.038;8.710;2022-10-17T10:12:21;30.80;48.70
10123;DHT22;5101;49.038;8.710;2022-10-17T10:14:47;31.00;47.40
10123;DHT22;5101;49.038;8.710;2022-10-17T10:20:24;31.00;46.90
10123;DHT22;5101;49.038;8.710;2022-10-17T10:23:13;31.00;47.30
10123;DHT22;5101;49.038;8.710;2022-10-17T10:25:58;31.00;47.20
10123;DHT22;5101;49.038;8.710;2022-10-17T10:28:27;31.00;47.80
10123;DHT22;5101;49.038;8.710;2022-10-17T10:30:54;31.10;47.30
10123;DHT22;5101;49.038;8.710;2022-10-17T10:33:22;30.90;46.80
10123;DHT22;5101;49.038;8.710;2022-10-17T10:38:23;30.70;46.80
10123;DHT22;5101;49.038;8.710;2022-10-17T10:40:55;30.80;46.40
10123;DHT22;5101;49.038;8.710;2022-10-17T10:46:05;30.90;45.20
10123;DHT22;5101;49.038;8.710;2022-10-17T10:48:35;31.00;46.30
10123;DHT22;5101;49.038;8.710;2022-10-17T10:51:09;31.00;46.50
10123;DHT22;5101;49.038;8.710;2022-10-17T10:56:42;31.20;46.60
10123;DHT22;5101;49.038;8.710;2022-10-17T10:59:11;31.20;47.30
10123;DHT22;5101;49.038;8.710;2022-10-17T11:06:57;31.20;45.80
10123;DHT22;5101;49.038;8.710;2022-10-17T11:10:14;31.20;45.30
10123;DHT22;5101;49.038;8.710;2022-10-17T11:15:20;31.30;44.40
10123;DHT22;5101;49.038;8.710;2022-10-17T11:18:06;31.20;44.50
10123;DHT22;5101;49.038;8.710;2022-10-17T11:20:59;31.20;45.80
10123;DHT22;5101;49.038;8.710;2022-10-17T11:23:47;31.10;45.20
10123;DHT22;5101;49.038;8.710;2022-10-17T11:26:20;31.00;44.80
10123;DHT22;5101;49.038;8.710;2022-10-17T11:28:55;31.00;45.50
10123;DHT22;5101;49.038;8.710;2022-10-17T11:31:24;30.70;45.10
10123;DHT22;5101;49.038;8.710;2022-10-17T11:34:08;30.60;44.60
10123;DHT22;5101;49.038;8.710;2022-10-17T11:36:40;30.70;44.80
10123;DHT22;5101;49.038;8.710;2022-10-17T11:39:14;30.70;45.00
10123;DHT22;5101;49.038;8.710;2022-10-17T11:41:56;30.90;45.00
10123;DHT22;5101;49.038;8.710;2022-10-17T11:44:37;30.90;45.20
10123;DHT22;5101;49.038;8.710;2022-10-17T11:47:04;31.10;45.30
10123;DHT22;5101;49.038;8.710;2022-10-17T11:49:37;31.20;45.50
10123;DHT22;5101;49.038;8.710;2022-10-17T11:55:17;31.10;46.50
10123;DHT22;5101;49.038;8.710;2022-10-17T12:03:24;31.00;47.70
10123;DHT22;5101;49.038;8.710;2022-10-17T12:08:48;31.00;47.20
10123;DHT22;5101;49.038;8.710;2022-10-17T12:11:44;30.90;47.20
10123;DHT22;5101;49.038;8.710;2022-10-17T12:14:37;30.70;47.40
10123;DHT22;5101;49.038;8.710;2022-10-17T12:17:04;30.40;47.40
10123;DHT22;5101;49.038;8.710;2022-10-17T12:19:32;30.20;47.90
10123;DHT22;5101;49.038;8.710;2022-10-17T12:22:19;30.30;47.30
10123;DHT22;5101;49.038;8.710;2022-10-17T12:25:00;30.20;47.50
10123;DHT22;5101;49.038;8.710;2022-10-17T12:27:39;30.00;47.20
10123;DHT22;5101;49.038;8.710;2022-10-17T12:32:37;29.60;47.40
10123;DHT22;5101;49.038;8.710;2022-10-17T12:35:03;29.20;48.10
10123;DHT22;5101;49.038;8.710;2022-10-17T12:45:56;28.90;50.40
10123;DHT22;5101;49.038;8.710;2022-10-17T12:51:18;28.70;49.90
10123;DHT22;5101;49.038;8.710;2022-10-17T12:56:36;28.20;50.90
10123;DHT22;5101;49.038;8.710;2022-10-17T12:59:13;28.30;50.80
10123;DHT22;5101;49.038;8.710;2022-10-17T13:01:43;28.40;50.60
10123;DHT22;5101;49.038;8.710;2022-10-17T13:04:10;28.20;50.70
10123;DHT22;5101;49.038;8.710;2022-10-17T13:06:39;27.90;51.00
10123;DHT22;5101;49.038;8.710;2022-10-17T13:09:19;27.60;52.60
10123;DHT22;5101;49.038;8.710;2022-10-17T13:11:48;27.60;53.00
10123;DHT22;5101;49.038;8.710;2022-10-17T13:14:15;27.50;52.80
10123;DHT22;5101;49.038;8.710;2022-10-17T13:17:00;27.60;53.70
10123;DHT22;5101;49.038;8.710;2022-10-17T13:19:41;27.70;55.10
10123;DHT22;5101;49.038;8.710;2022-10-17T13:22:31;27.70;55.80
10123;DHT22;5101;49.038;8.710;2022-10-17T13:25:18;27.60;55.10
10123;DHT22;5101;49.038;8.710;2022-10-17T13:27:44;27.40;54.20
10123;DHT22;5101;49.038;8.710;2022-10-17T13:30:31;27.40;54.40
10123;DHT22;5101;49.038;8.710;2022-10-17T13:32:57;27.40;53.70
10123;DHT22;5101;49.038;8.710;2022-10-17T13:35:33;27.30;54.50
10123;DHT22;5101;49.038;8.710;2022-10-17T13:38:01;27.30;54.90
10123;DHT22;5101;49.038;8.710;2022-10-17T13:40:29;27.20;55.20
10123;DHT22;5101;49.038;8.710;2022-10-17T13:42:57;27.30;56.00
10123;DHT22;5101;49.038;8.710;2022-10-17T13:45:33;27.30;56.50
10123;DHT22;5101;49.038;8.710;2022-10-17T13:48:05;27.30;56.50
10123;DHT22;5101;49.038;8.710;2022-10-17T13:50:37;27.20;56.30
10123;DHT22;5101;49.038;8.710;2022-10-17T13:53:35;27.00;56.30
10123;DHT22;5101;49.038;8.710;2022-10-17T13:58:43;26.80;57.80
10123;DHT22;5101;49.038;8.710;2022-10-17T14:01:10;26.80;58.20
10123;DHT22;5101;49.038;8.710;2022-10-17T14:03:36;26.80;59.10
10123;DHT22;5101;49.038;8.710;2022-10-17T14:11:41;26.80;59.80
10123;DHT22;5101;49.038;8.710;2022-10-17T14:14:20;26.70;59.60
10123;DHT22;5101;49.038;8.710;2022-10-17T14:16:46;26.60;59.90
10123;DHT22;5101;49.038;8.710;2022-10-17T14:19:29;26.50;60.40
10123;DHT22;5101;49.038;8.710;2022-10-17T14:22:14;26.40;60.60
10123;DHT22;5101;49.038;8.710;2022-10-17T14:24:41;26.20;60.10
10123;DHT22;5101;49.038;8.710;2022-10-17T14:29:57;26.00;61.20
10123;DHT22;5101;49.038;8.710;2022-10-17T14:32:29;26.00;61.30
10123;DHT22;5101;49.038;8.710;2022-10-17T14:34:57;25.90;61.90
10123;DHT22;5101;49.038;8.710;2022-10-17T14:40:01;25.70;62.90
10123;DHT22;5101;49.038;8.710;2022-10-17T14:42:27;25.60;63.20
10123;DHT22;5101;49.038;8.710;2022-10-17T14:44:54;25.50;63.90
10123;DHT22;5101;49.038;8.710;2022-10-17T14:47:24;25.50;64.30
10123;DHT22;5101;49.038;8.710;2022-10-17T14:50:05;25.50;64.30
10123;DHT22;5101;49.038;8.710;2022-10-17T14:52:31;25.40;64.70
10123;DHT22;5101;49.038;8.710;2022-10-17T14:54:59;25.30;65.10
10123;DHT22;5101;49.038;8.710;2022-10-17T14:57:41;25.30;65.80
10123;DHT22;5101;49.038;8.710;2022-10-17T15:00:13;25.30;66.20
10123;DHT22;5101;49.038;8.710;2022-10-17T15:02:39;25.30;66.20
10123;DHT22;5101;49.038;8.710;2022-10-17T15:05:05;25.20;65.90
10123;DHT22;5101;49.038;8.710;2022-10-17T15:07:30;25.30;66.30
10123;DHT22;5101;49.038;8.710;2022-10-17T15:09:56;25.20;66.60
10123;DHT22;5101;49.038;8.710;2022-10-17T15:12:23;25.20;66.70
10123;DHT22;5101;49.038;8.710;2022-10-17T15:14:49;25.10;66.90
10123;DHT22;5101;49.038;8.710;2022-10-17T15:17:30;25.10;67.10
10123;DHT22;5101;49.038;8.710;2022-10-17T15:19:56;25.10;68.50
10123;DHT22;5101;49.038;8.710;2022-10-17T15:22:22;25.10;68.60
10123;DHT22;5101;49.038;8.710;2022-10-17T15:24:48;25.00;69.40
10123;DHT22;5101;49.038;8.710;2022-10-17T15:27:20;25.00;70.90
10123;DHT22;5101;49.038;8.710;2022-10-17T15:29:47;25.00;70.20
10123;DHT22;5101;49.038;8.710;2022-10-17T15:32:13;25.00;70.40
10123;DHT22;5101;49.038;8.710;2022-10-17T15:34:39;24.90;71.40
10123;DHT22;5101;49.038;8.710;2022-10-17T15:37:06;24.80;72.20
10123;DHT22;5101;49.038;8.710;2022-10-17T15:39:32;24.70;72.90
10123;DHT22;5101;49.038;8.710;2022-10-17T15:41:57;24.70;73.40
10123;DHT22;5101;49.038;8.710;2022-10-17T15:44:24;24.70;74.20
10123;DHT22;5101;49.038;8.710;2022-10-17T15:46:49;24.70;74.90
10123;DHT22;5101;49.038;8.710;2022-10-17T15:49:17;24.60;75.90
10123;DHT22;5101;49.038;8.710;2022-10-17T15:51:44;24.50;76.60
10123;DHT22;5101;49.038;8.710;2022-10-17T15:54:10;24.40;77.00
10123;DHT22;5101;49.038;8.710;2022-10-17T15:56:42;24.40;78.50
10123;DHT22;5101;49.038;8.710;2022-10-17T15:59:17;24.30;79.80
10123;DHT22;5101;49.038;8.710;2022-10-17T16:01:43;24.20;80.30
10123;DHT22;5101;49.038;8.710;2022-10-17T16:04:11;24.20;80.40
10123;DHT22;5101;49.038;8.710;2022-10-17T16:06:39;24.10;80.70
10123;DHT22;5101;49.038;8.710;2022-10-17T16:09:04;24.00;81.50
10123;DHT22;5101;49.038;8.710;2022-10-17T16:11:38;23.90;81.90
10123;DHT22;5101;49.038;8.710;2022-10-17T16:14:10;23.80;83.40
10123;DHT22;5101;49.038;8.710;2022-10-17T16:16:36;23.80;83.80
10123;DHT22;5101;49.038;8.710;2022-10-17T16:19:01;23.60;84.20
10123;DHT22;5101;49.038;8.710;2022-10-17T16:21:30;23.60;85.10
10123;DHT22;5101;49.038;8.710;2022-10-17T16:23:56;23.50;86.00
10123;DHT22;5101;49.038;8.710;2022-10-17T16:26:22;23.40;86.30
10123;DHT22;5101;49.038;8.710;2022-10-17T16:28:48;23.30;86.80
10123;DHT22;5101;49.038;8.710;2022-10-17T16:31:22;23.20;87.20
10123;DHT22;5101;49.038;8.710;2022-10-17T16:33:51;23.10;87.70
10123;DHT22;5101;49.038;8.710;2022-10-17T16:36:17;23.00;87.90
10123;DHT22;5101;49.038;8.710;2022-10-17T16:38:43;22.90;88.40
10123;DHT22;5101;49.038;8.710;2022-10-17T16:43:47;22.80;90.30
10123;DHT22;5101;49.038;8.710;2022-10-17T16:46:13;22.70;90.30
10123;DHT22;5101;49.038;8.710;2022-10-17T16:48:38;22.60;90.50
10123;DHT22;5101;49.038;8.710;2022-10-17T16:51:04;22.50;90.80
10123;DHT22;5101;49.038;8.710;2022-10-17T16:53:29;22.40;91.10
10123;DHT22;5101;49.038;8.710;2022-10-17T16:56:03;22.40;91.50
10123;DHT22;5101;49.038;8.710;2022-10-17T16:58:28;22.20;92.00
10123;DHT22;5101;49.038;8.710;2022-10-17T17:01:00;22.20;92.00
10123;DHT22;5101;49.038;8.710;2022-10-17T17:03:26;22.10;92.50
10123;DHT22;5101;49.038;8.710;2022-10-17T17:05:51;22.00;92.60
10123;DHT22;5101;49.038;8.710;2022-10-17T17:08:17;21.90;92.80
10123;DHT22;5101;49.038;8.710;2022-10-17T17:10:47;21.80;93.10
10123;DHT22;5101;49.038;8.710;2022-10-17T17:13:15;21.70;93.50
10123;DHT22;5101;49.038;8.710;2022-10-17T17:15:41;21.70;93.70
10123;DHT22;5101;49.038;8.710;2022-10-17T17:18:06;21.60;94.00
10123;DHT22;5101;49.038;8.710;2022-10-17T17:20:32;21.50;94.20
10123;DHT22;5101;49.038;8.710;2022-10-17T17:22:58;21.50;94.40
10123;DHT22;5101;49.038;8.710;2022-10-17T17:25:24;21.40;94.70
10123;DHT22;5101;49.038;8.710;2022-10-17T17:27:50;21.20;94.90
10123;DHT22;5101;49.038;8.710;2022-10-17T17:30:15;21.20;95.20
10123;DHT22;5101;49.038;8.710;2022-10-17T17:32:41;21.10;95.50
10123;DHT22;5101;49.038;8.710;2022-10-17T17:35:07;21.10;95.70
10123;DHT22;5101;49.038;8.710;2022-10-17T17:37:33;20.90;95.80
10123;DHT22;5101;49.038;8.710;2022-10-17T17:39:59;20.80;96.30
10123;DHT22;5101;49.038;8.710;2022-10-17T17:42:24;20.70;96.60
10123;DHT22;5101;49.038;8.710;2022-10-17T17:44:50;20.70;96.80
10123;DHT22;5101;49.038;8.710;2022-10-17T17:47:17;20.50;97.00
10123;DHT22;5101;49.038;8.710;2022-10-17T17:49:42;20.50;97.20
10123;DHT22;5101;49.038;8.710;2022-10-17T17:52:08;20.40;97.40
10123;DHT22;5101;49.038;8.710;2022-10-17T17:54:33;20.30;97.70
10123;DHT22;5101;49.038;8.710;2022-10-17T17:56:59;20.20;97.90
10123;DHT22;5101;49.038;8.710;2022-10-17T17:59:24;20.20;98.20
10123;DHT22;5101;49.038;8.710;2022-10-17T18:01:50;20.10;98.50
10123;DHT22;5101;49.038;8.710;2022-10-17T18:04:15;20.00;98.60
10123;DHT22;5101;49.038;8.710;2022-10-17T18:06:41;20.00;98.80